Toimi, Minnesota
Current Conditions -  °F | °C
As of 11:01 AM on Saturday 20 Dec 2014 (Local Time) from KTWM Reporting Station
Overcast Overcast  
Wind Chill: 23°   Ceiling: 700
Heat Index: 30°   Visibility: 5mi
Dew Point: 27°   Wind: 7mph
Humidity: 86%   Direction: 180°S
Pressure: 30.11"   Gusts: NA
Location:  47.3998°N, 91.9141°W
Report Text: KTWM 201701Z AUTO 18006KT 5SM OVC007 M01/M03 A3011 RMK AO2
Loading
Personal Weather Stations






























Interactive Weather Map New forecast layout! Learn more

10-Day Weather Forecast

Advertisements
Track Severe Weather on mobile